createdAt,value
2023-06-15T00:01:20.713Z,17.90
2023-06-15T00:03:47.448Z,15.20
2023-06-15T00:06:14.407Z,12.60
2023-06-15T00:08:41.346Z,14.10
2023-06-15T00:11:08.109Z,16.70
2023-06-15T00:13:35.242Z,11.50
2023-06-15T00:16:02.111Z,13.10
2023-06-15T00:18:29.182Z,15.00
2023-06-15T00:20:56.403Z,20.10
2023-06-15T00:23:27.104Z,15.10
2023-06-15T00:25:54.345Z,14.80
2023-06-15T00:28:21.296Z,13.50
2023-06-15T00:30:48.236Z,12.10
2023-06-15T00:33:15.225Z,12.30
2023-06-15T00:35:42.050Z,13.40
2023-06-15T00:38:08.880Z,13.90
2023-06-15T00:40:39.326Z,14.90
2023-06-15T00:43:06.389Z,14.00
2023-06-15T00:45:33.306Z,13.30
2023-06-15T00:48:01.098Z,12.60
2023-06-15T00:50:30.456Z,11.60
2023-06-15T00:52:59.164Z,12.00
2023-06-15T00:55:25.897Z,20.90
2023-06-15T00:57:53.351Z,21.50
2023-06-15T01:00:20.311Z,18.70
2023-06-15T01:02:51.099Z,16.10
2023-06-15T01:05:18.519Z,12.50
2023-06-15T01:07:47.791Z,21.30
2023-06-15T01:10:16.575Z,24.80
2023-06-15T01:12:44.996Z,30.30
2023-06-15T01:15:12.762Z,34.50
2023-06-15T01:17:45.221Z,32.20
2023-06-15T01:20:22.166Z,37.30
2023-06-15T01:23:00.161Z,15.20
2023-06-15T01:25:46.479Z,10.80
2023-06-15T01:28:16.070Z,10.10
2023-06-15T01:30:44.609Z,10.60
2023-06-15T01:33:12.042Z,11.30
2023-06-15T01:35:39.394Z,9.80
2023-06-15T01:38:09.491Z,9.50
2023-06-15T01:40:39.262Z,9.60
2023-06-15T01:45:34.802Z,10.20
2023-06-15T01:48:01.562Z,10.50
2023-06-15T01:50:28.543Z,18.60
2023-06-15T01:52:55.322Z,78.80
2023-06-15T01:55:21.862Z,95.70
2023-06-15T01:57:52.968Z,113.30
2023-06-15T02:00:21.209Z,33.80
2023-06-15T02:02:48.212Z,13.40
2023-06-15T02:05:15.545Z,19.50
2023-06-15T02:07:42.757Z,102.40
2023-06-15T02:10:10.372Z,21.10
2023-06-15T02:12:37.477Z,14.80
2023-06-15T02:15:06.082Z,13.90
2023-06-15T02:17:38.861Z,11.30
2023-06-15T02:20:08.329Z,15.50
2023-06-15T02:22:35.947Z,10.90
2023-06-15T02:25:03.739Z,12.30
2023-06-15T02:27:30.843Z,24.20
2023-06-15T02:29:57.819Z,13.10
2023-06-15T02:32:35.365Z,12.10
2023-06-15T02:37:36.375Z,12.30
2023-06-15T02:40:07.304Z,10.60
2023-06-15T02:42:35.587Z,11.70
2023-06-15T02:45:03.450Z,20.70
2023-06-15T02:47:30.859Z,19.50
2023-06-15T02:49:59.850Z,10.60
2023-06-15T02:52:27.469Z,10.50
2023-06-15T02:54:54.500Z,9.40
2023-06-15T02:57:21.452Z,9.70
2023-06-15T03:00:05.866Z,9.40
2023-06-15T03:02:34.284Z,10.50
2023-06-15T03:05:01.135Z,11.30
2023-06-15T03:07:37.273Z,9.50
2023-06-15T03:10:22.929Z,9.60
2023-06-15T03:12:49.812Z,10.10
2023-06-15T03:15:17.597Z,11.00
2023-06-15T03:20:13.195Z,13.20
2023-06-15T03:22:41.303Z,12.50
2023-06-15T03:25:11.506Z,11.10
2023-06-15T03:27:41.356Z,9.20
2023-06-15T03:30:12.054Z,9.90
2023-06-15T03:32:42.219Z,10.20
2023-06-15T03:35:09.432Z,14.40
2023-06-15T03:37:37.878Z,15.00
2023-06-15T03:40:06.190Z,12.00
2023-06-15T03:42:33.423Z,10.70
2023-06-15T03:45:00.688Z,11.40
2023-06-15T03:47:27.953Z,11.70
2023-06-15T03:49:55.980Z,12.20
2023-06-15T03:52:25.582Z,12.00
2023-06-15T03:54:52.238Z,10.60
2023-06-15T03:57:19.781Z,10.40
2023-06-15T03:59:46.562Z,11.50
2023-06-15T04:02:13.527Z,9.00
2023-06-15T04:04:40.807Z,9.10
2023-06-15T04:07:09.525Z,10.50
2023-06-15T04:09:36.899Z,9.40
2023-06-15T04:12:04.687Z,9.80
2023-06-15T04:14:31.790Z,8.90
2023-06-15T04:16:58.679Z,10.20
2023-06-15T04:19:25.985Z,9.30
2023-06-15T04:21:53.360Z,9.60
2023-06-15T04:24:19.995Z,9.40
2023-06-15T04:26:47.242Z,9.70
2023-06-15T04:29:18.687Z,10.60
2023-06-15T04:31:55.458Z,10.30
2023-06-15T04:34:25.306Z,10.60
2023-06-15T04:36:52.356Z,13.20
2023-06-15T04:39:23.040Z,12.90
2023-06-15T04:41:49.931Z,13.40
2023-06-15T04:44:16.741Z,12.70
2023-06-15T04:46:43.866Z,11.50
2023-06-15T04:49:12.701Z,10.90
2023-06-15T04:54:06.933Z,17.50
2023-06-15T04:56:33.928Z,16.40
2023-06-15T04:59:01.282Z,16.20
2023-06-15T05:01:28.437Z,14.00
2023-06-15T05:06:26.625Z,12.40
2023-06-15T05:08:55.786Z,12.40
2023-06-15T05:11:23.425Z,11.00
2023-06-15T05:13:50.303Z,11.70
2023-06-15T05:16:17.141Z,10.80
2023-06-15T05:18:46.396Z,10.20
2023-06-15T05:21:13.281Z,10.30
2023-06-15T05:23:41.287Z,9.60
2023-06-15T05:26:25.055Z,9.40
2023-06-15T05:28:55.847Z,8.70
2023-06-15T05:31:23.086Z,9.30
2023-06-15T05:33:49.958Z,10.10
2023-06-15T05:38:47.619Z,9.10
2023-06-15T05:41:14.546Z,9.00
2023-06-15T05:43:41.910Z,9.30
2023-06-15T05:46:08.724Z,8.50
2023-06-15T05:48:35.755Z,14.00
2023-06-15T05:51:02.756Z,12.20
2023-06-15T05:53:31.001Z,9.50
2023-06-15T05:55:59.646Z,8.90
2023-06-15T05:58:27.319Z,15.40
2023-06-15T06:00:53.984Z,8.40
2023-06-15T06:03:21.750Z,8.20
2023-06-15T06:05:49.960Z,8.30
2023-06-15T06:08:19.443Z,7.90
2023-06-15T06:10:46.076Z,7.90
2023-06-15T06:13:31.920Z,7.90
2023-06-15T06:15:58.842Z,7.40
2023-06-15T06:18:26.837Z,7.30
2023-06-15T06:20:53.509Z,5.70
2023-06-15T06:23:20.321Z,6.30
2023-06-15T06:25:46.978Z,5.90
2023-06-15T06:28:13.907Z,6.50
2023-06-15T06:30:40.661Z,6.30
2023-06-15T06:33:07.479Z,6.20
2023-06-15T06:38:01.476Z,6.80
2023-06-15T06:40:29.112Z,5.80
2023-06-15T06:45:22.411Z,6.60
2023-06-15T06:47:49.437Z,7.70
2023-06-15T06:50:16.388Z,6.70
2023-06-15T06:52:43.788Z,7.00
2023-06-15T06:55:10.944Z,6.90
2023-06-15T06:57:37.916Z,6.70
2023-06-15T07:00:06.895Z,5.60
2023-06-15T07:02:33.926Z,4.70
2023-06-15T07:05:01.230Z,4.50
2023-06-15T07:07:28.106Z,5.10
2023-06-15T07:09:54.863Z,4.80
2023-06-15T07:12:22.069Z,10.20
2023-06-15T07:14:48.850Z,6.00
2023-06-15T07:17:15.598Z,18.70
2023-06-15T07:19:42.269Z,6.10
2023-06-15T07:22:08.885Z,5.80
2023-06-15T07:24:36.869Z,5.20
2023-06-15T07:27:04.246Z,4.70
2023-06-15T07:29:32.758Z,5.10
2023-06-15T07:31:59.609Z,3.90
2023-06-15T07:34:27.101Z,4.30
2023-06-15T07:36:54.377Z,4.40
2023-06-15T07:39:21.070Z,4.70
2023-06-15T07:41:47.900Z,4.30
2023-06-15T07:44:14.959Z,5.60
2023-06-15T07:46:41.877Z,4.40
2023-06-15T07:49:08.588Z,4.00
2023-06-15T07:51:41.458Z,4.20
2023-06-15T07:54:14.944Z,4.10
2023-06-15T07:56:42.895Z,4.80
2023-06-15T07:59:09.741Z,4.50
2023-06-15T08:01:37.653Z,4.40
2023-06-15T08:04:04.815Z,4.50
2023-06-15T08:06:31.990Z,3.70
2023-06-15T08:08:58.604Z,3.50
2023-06-15T08:11:26.194Z,4.30
2023-06-15T08:13:52.808Z,4.40
2023-06-15T08:16:19.553Z,4.50
2023-06-15T08:18:46.501Z,4.90
2023-06-15T08:21:13.467Z,3.90
2023-06-15T08:23:40.174Z,4.10
2023-06-15T08:26:07.119Z,3.40
2023-06-15T08:28:51.424Z,4.10
2023-06-15T08:31:21.185Z,3.80
2023-06-15T08:33:48.021Z,4.40
2023-06-15T08:36:15.182Z,3.90
2023-06-15T08:41:08.813Z,4.00
2023-06-15T08:43:35.866Z,3.90
2023-06-15T08:46:02.683Z,3.80
2023-06-15T08:48:29.847Z,3.60
2023-06-15T08:50:56.714Z,3.00
2023-06-15T08:53:23.713Z,3.90
2023-06-15T08:55:50.481Z,4.10
2023-06-15T08:58:17.339Z,3.40
2023-06-15T09:00:45.219Z,4.80
2023-06-15T09:03:12.570Z,4.00
2023-06-15T09:05:39.894Z,4.30
2023-06-15T09:08:06.564Z,4.70
2023-06-15T09:10:38.292Z,4.20
2023-06-15T09:13:06.014Z,4.50
2023-06-15T09:15:33.111Z,4.50
2023-06-15T09:18:02.072Z,4.70
2023-06-15T09:20:31.041Z,4.50
2023-06-15T09:23:02.733Z,4.60
2023-06-15T09:25:32.425Z,4.80
2023-06-15T09:28:00.547Z,5.20
2023-06-15T09:30:32.462Z,4.50
2023-06-15T09:33:19.051Z,4.60
2023-06-15T09:35:56.961Z,5.30
2023-06-15T09:38:34.568Z,3.90
2023-06-15T09:41:04.286Z,4.60
2023-06-15T09:43:34.504Z,5.30
2023-06-15T09:46:02.153Z,4.20
2023-06-15T09:48:31.145Z,3.70
2023-06-15T09:51:02.083Z,4.40
2023-06-15T09:53:30.745Z,3.60
2023-06-15T09:55:58.328Z,3.40
2023-06-15T09:58:25.188Z,4.30
2023-06-15T10:00:57.973Z,4.40
2023-06-15T10:03:25.909Z,4.20
2023-06-15T10:06:06.505Z,4.30
2023-06-15T10:08:34.819Z,3.70
2023-06-15T10:11:01.728Z,4.00
2023-06-15T10:13:32.966Z,4.00
2023-06-15T10:16:00.435Z,3.90
2023-06-15T10:18:27.301Z,3.60
2023-06-15T10:20:55.209Z,4.30
2023-06-15T10:23:40.322Z,4.30
2023-06-15T10:31:08.692Z,3.50
2023-06-15T10:33:50.715Z,3.80
2023-06-15T10:36:24.973Z,4.80
2023-06-15T10:39:24.176Z,3.60
2023-06-15T10:41:57.802Z,3.80
2023-06-15T10:44:33.707Z,3.60
2023-06-15T10:47:13.306Z,3.90
2023-06-15T10:49:50.702Z,3.90
2023-06-15T10:52:18.512Z,3.80
2023-06-15T10:54:45.636Z,4.80
2023-06-15T10:57:26.563Z,3.80
2023-06-15T10:59:55.390Z,4.00
2023-06-15T11:02:34.550Z,4.00
2023-06-15T11:05:11.623Z,3.70
2023-06-15T11:07:40.731Z,4.40
2023-06-15T11:10:13.254Z,3.90
2023-06-15T11:12:43.886Z,3.70
2023-06-15T11:15:13.180Z,4.40
2023-06-15T11:17:52.870Z,3.70
2023-06-15T11:20:39.631Z,3.60
2023-06-15T11:23:11.297Z,4.00
2023-06-15T11:25:39.830Z,3.70
2023-06-15T11:28:07.340Z,3.80
2023-06-15T11:30:35.028Z,4.20
2023-06-15T11:33:02.342Z,4.50
2023-06-15T11:35:31.024Z,3.60
2023-06-15T11:37:58.753Z,3.60
2023-06-15T11:40:25.647Z,4.40
2023-06-15T11:42:54.103Z,3.30
2023-06-15T11:45:20.987Z,3.90
2023-06-15T11:47:47.974Z,4.10
2023-06-15T11:50:18.362Z,4.40
2023-06-15T11:52:45.679Z,4.50
2023-06-15T11:55:14.764Z,3.50
2023-06-15T11:57:44.345Z,4.20
2023-06-15T12:00:13.413Z,3.50
2023-06-15T12:02:41.192Z,4.40
2023-06-15T12:05:12.076Z,3.80
2023-06-15T12:07:39.270Z,4.10
2023-06-15T12:10:12.003Z,4.50
2023-06-15T12:12:40.496Z,4.30
2023-06-15T12:15:08.245Z,3.80
2023-06-15T12:17:36.469Z,3.70
2023-06-15T12:20:10.129Z,4.10
2023-06-15T12:22:42.730Z,3.90
2023-06-15T12:25:09.775Z,4.30
2023-06-15T12:27:43.369Z,4.20
2023-06-15T12:30:18.239Z,3.70
2023-06-15T12:32:47.076Z,3.40
2023-06-15T12:35:37.881Z,3.90
2023-06-15T12:38:08.587Z,3.70
2023-06-15T12:40:40.162Z,4.10
2023-06-15T12:43:07.004Z,3.40
2023-06-15T12:45:34.410Z,4.20
2023-06-15T12:48:01.628Z,3.60
2023-06-15T12:50:31.758Z,3.90
2023-06-15T12:52:59.494Z,3.80
2023-06-15T13:00:27.844Z,3.70
2023-06-15T13:02:55.036Z,4.10
2023-06-15T13:05:22.294Z,3.90
2023-06-15T13:07:49.468Z,3.80
2023-06-15T13:10:17.622Z,3.90
2023-06-15T13:12:47.242Z,3.70
2023-06-15T13:15:14.252Z,3.50
2023-06-15T13:17:42.013Z,3.90
2023-06-15T13:20:09.800Z,3.60
2023-06-15T13:22:36.808Z,3.40
2023-06-15T13:25:07.181Z,3.90
2023-06-15T13:27:38.326Z,3.70
2023-06-15T13:30:07.401Z,4.00
2023-06-15T13:32:37.796Z,3.50
2023-06-15T13:35:06.033Z,3.30
2023-06-15T13:37:34.875Z,8.10
2023-06-15T13:40:06.700Z,3.70
2023-06-15T13:42:38.353Z,4.20
2023-06-15T13:45:09.292Z,3.70
2023-06-15T13:47:38.907Z,3.40
2023-06-15T13:50:06.376Z,3.80
2023-06-15T13:52:33.111Z,3.80
2023-06-15T13:55:00.319Z,4.10
2023-06-15T13:57:27.562Z,3.40
2023-06-15T13:59:54.099Z,3.60
2023-06-15T14:02:21.386Z,3.90
2023-06-15T14:04:48.112Z,2.90
2023-06-15T14:07:15.218Z,3.40
2023-06-15T14:09:43.964Z,6.30
2023-06-15T14:12:11.982Z,3.90
2023-06-15T14:14:38.910Z,3.70
2023-06-15T14:17:05.915Z,3.70
2023-06-15T14:19:32.940Z,4.20
2023-06-15T14:21:59.772Z,3.60
2023-06-15T14:24:26.743Z,3.70
2023-06-15T14:26:53.691Z,3.80
2023-06-15T14:29:20.905Z,4.30
2023-06-15T14:31:49.991Z,3.80
2023-06-15T14:34:18.384Z,3.40
2023-06-15T14:36:46.266Z,4.10
2023-06-15T14:39:13.804Z,3.90
2023-06-15T14:41:40.613Z,4.20
2023-06-15T14:44:12.370Z,4.30
2023-06-15T14:46:43.029Z,3.80
2023-06-15T14:49:10.594Z,7.50
2023-06-15T14:51:38.208Z,4.40
2023-06-15T14:54:06.369Z,3.80
2023-06-15T14:56:34.268Z,3.50
2023-06-15T14:59:01.379Z,3.60
2023-06-15T15:01:28.733Z,4.00
2023-06-15T15:06:22.329Z,3.30
2023-06-15T15:08:50.445Z,3.10
2023-06-15T15:11:17.392Z,4.00
2023-06-15T15:13:44.365Z,3.60
2023-06-15T15:16:11.597Z,3.90
2023-06-15T15:18:39.263Z,3.60
2023-06-15T15:21:06.544Z,3.70
2023-06-15T15:23:34.615Z,3.10
2023-06-15T15:26:01.447Z,4.10
2023-06-15T15:30:56.320Z,3.50
2023-06-15T15:33:23.338Z,3.60
2023-06-15T15:35:50.340Z,4.70
2023-06-15T15:38:17.492Z,4.20
2023-06-15T15:40:44.238Z,4.20
2023-06-15T15:43:10.874Z,4.50
2023-06-15T15:45:37.644Z,3.60
2023-06-15T15:48:06.868Z,3.70
2023-06-15T15:50:35.576Z,3.70
2023-06-15T15:53:02.251Z,3.40
2023-06-15T15:55:29.379Z,3.40
2023-06-15T15:57:56.406Z,8.30
2023-06-15T16:00:23.982Z,5.80
2023-06-15T16:02:50.756Z,4.10
2023-06-15T16:05:17.685Z,3.60
2023-06-15T16:07:45.135Z,3.30
2023-06-15T16:10:11.991Z,3.50
2023-06-15T16:12:40.660Z,4.40
2023-06-15T16:17:35.824Z,3.40
2023-06-15T16:20:04.881Z,3.80
2023-06-15T16:22:32.607Z,3.70
2023-06-15T16:25:00.031Z,3.30
2023-06-15T16:27:26.838Z,3.90
2023-06-15T16:29:55.312Z,3.50
2023-06-15T16:32:22.099Z,3.10
2023-06-15T16:34:49.028Z,3.70
2023-06-15T16:37:16.668Z,3.30
2023-06-15T16:39:51.169Z,4.10
2023-06-15T16:42:19.762Z,3.40
2023-06-15T16:44:47.349Z,6.20
2023-06-15T16:47:14.760Z,5.40
2023-06-15T16:49:46.137Z,4.60
2023-06-15T16:52:13.523Z,3.80
2023-06-15T16:54:41.043Z,3.30
2023-06-15T16:57:08.967Z,4.10
2023-06-15T16:59:36.229Z,3.80
2023-06-15T17:02:03.848Z,3.50
2023-06-15T17:04:30.683Z,4.40
2023-06-15T17:06:57.491Z,4.90
2023-06-15T17:09:25.573Z,4.70
2023-06-15T17:11:52.617Z,4.30
2023-06-15T17:14:19.578Z,3.70
2023-06-15T17:16:46.976Z,4.70
2023-06-15T17:19:13.931Z,4.80
2023-06-15T17:21:41.460Z,4.90
2023-06-15T17:24:08.518Z,6.20
2023-06-15T17:26:36.933Z,5.30
2023-06-15T17:29:04.006Z,6.00
2023-06-15T17:31:31.057Z,6.30
2023-06-15T17:33:57.935Z,6.20
2023-06-15T17:36:24.527Z,5.90
2023-06-15T17:38:51.394Z,5.40
2023-06-15T17:41:18.136Z,6.20
2023-06-15T17:43:45.315Z,6.30
2023-06-15T17:46:14.866Z,9.50
2023-06-15T17:48:41.988Z,9.00
2023-06-15T17:51:09.324Z,12.70
2023-06-15T17:53:37.333Z,13.00
2023-06-15T17:58:31.389Z,14.40
2023-06-15T18:00:58.110Z,18.20
2023-06-15T18:03:25.655Z,22.10
2023-06-15T18:05:53.169Z,21.40
2023-06-15T18:08:19.890Z,24.40
2023-06-15T18:10:49.565Z,26.50
2023-06-15T18:13:16.970Z,30.50
2023-06-15T18:15:44.042Z,31.70
2023-06-15T18:18:11.405Z,32.20
2023-06-15T18:20:39.546Z,40.30
2023-06-15T18:23:06.991Z,48.10
2023-06-15T18:25:34.049Z,60.30
2023-06-15T18:28:01.426Z,49.30
2023-06-15T18:30:28.586Z,38.70
2023-06-15T18:32:56.396Z,39.40
2023-06-15T18:35:24.991Z,35.30
2023-06-15T18:37:52.293Z,44.40
2023-06-15T18:40:19.143Z,56.00
2023-06-15T18:42:46.104Z,57.30
2023-06-15T18:45:13.438Z,53.00
2023-06-15T18:50:08.598Z,33.90
2023-06-15T18:52:36.697Z,36.00
2023-06-15T18:55:04.449Z,33.70
2023-06-15T18:57:31.891Z,29.40
2023-06-15T18:59:58.908Z,26.80
2023-06-15T19:02:26.219Z,28.40
2023-06-15T19:04:53.129Z,26.30
2023-06-15T19:07:20.039Z,25.80
2023-06-15T19:09:46.825Z,26.90
2023-06-15T19:12:13.543Z,19.00
2023-06-15T19:14:42.062Z,17.40
2023-06-15T19:22:04.625Z,12.40
2023-06-15T19:24:32.181Z,20.20
2023-06-15T19:26:59.022Z,44.50
2023-06-15T19:29:26.243Z,30.50
2023-06-15T19:31:53.044Z,23.80
2023-06-15T19:34:20.787Z,17.80
2023-06-15T19:36:51.908Z,14.80
2023-06-15T19:39:25.637Z,18.00
2023-06-15T19:41:52.500Z,12.90
2023-06-15T19:44:19.680Z,16.10
2023-06-15T19:46:46.504Z,12.30
2023-06-15T19:49:13.410Z,11.90
2023-06-15T19:51:40.765Z,12.60
2023-06-15T19:54:07.568Z,12.50
2023-06-15T19:56:38.780Z,15.10
2023-06-15T19:59:06.862Z,14.10
2023-06-15T20:01:33.768Z,13.00
2023-06-15T20:04:00.548Z,12.30
2023-06-15T20:06:27.288Z,13.40
2023-06-15T20:08:53.987Z,12.30
2023-06-15T20:11:21.232Z,14.00
2023-06-15T20:13:48.107Z,13.00
2023-06-15T20:16:15.531Z,13.10
2023-06-15T20:18:47.565Z,10.60
2023-06-15T20:21:14.675Z,11.80
2023-06-15T20:23:42.910Z,12.70
2023-06-15T20:26:09.769Z,12.60
2023-06-15T20:28:36.561Z,13.60
2023-06-15T20:31:05.168Z,13.50
2023-06-15T20:33:33.158Z,18.20
2023-06-15T20:36:00.208Z,15.10
2023-06-15T20:38:30.844Z,12.60
2023-06-15T20:41:01.730Z,12.40
2023-06-15T20:43:29.304Z,11.50
2023-06-15T20:45:56.895Z,11.80
2023-06-15T20:48:24.244Z,10.30
2023-06-15T20:50:50.971Z,10.50
2023-06-15T20:53:18.145Z,9.90
2023-06-15T20:55:45.208Z,11.40
2023-06-15T20:58:15.982Z,10.30
2023-06-15T21:00:42.723Z,11.60
2023-06-15T21:03:10.185Z,10.60
2023-06-15T21:05:37.055Z,12.70
2023-06-15T21:08:04.785Z,11.50
2023-06-15T21:10:31.670Z,12.40
2023-06-15T21:12:58.595Z,13.60
2023-06-15T21:15:25.568Z,13.20
2023-06-15T21:17:53.357Z,12.30
2023-06-15T21:20:20.533Z,10.30
2023-06-15T21:22:47.691Z,10.30
2023-06-15T21:25:14.523Z,9.60
2023-06-15T21:27:41.561Z,9.00
2023-06-15T21:30:08.902Z,10.30
2023-06-15T21:32:36.556Z,9.20
2023-06-15T21:35:06.098Z,9.20
2023-06-15T21:37:33.247Z,10.90
2023-06-15T21:40:00.085Z,9.70
2023-06-15T21:42:26.813Z,10.50
2023-06-15T21:44:53.644Z,11.00
2023-06-15T21:47:21.117Z,12.60
2023-06-15T21:49:48.570Z,12.20
2023-06-15T21:52:17.619Z,13.60
2023-06-15T21:54:45.634Z,12.80
2023-06-15T21:57:13.407Z,11.50
2023-06-15T21:59:43.253Z,11.80
2023-06-15T22:02:10.285Z,10.40
2023-06-15T22:04:37.675Z,11.70
2023-06-15T22:07:05.124Z,10.30
2023-06-15T22:09:36.133Z,9.70
2023-06-15T22:12:06.354Z,10.00
2023-06-15T22:14:34.661Z,9.50
2023-06-15T22:17:01.992Z,9.70
2023-06-15T22:19:29.827Z,9.90
2023-06-15T22:21:56.705Z,10.80
2023-06-15T22:24:23.511Z,9.50
2023-06-15T22:26:50.452Z,11.20
2023-06-15T22:29:18.167Z,8.90
2023-06-15T22:31:49.366Z,10.10
2023-06-15T22:34:16.511Z,12.20
2023-06-15T22:36:43.697Z,12.20
2023-06-15T22:39:10.919Z,10.90
2023-06-15T22:41:38.708Z,11.20
2023-06-15T22:44:05.582Z,11.80
2023-06-15T22:46:33.790Z,9.80
2023-06-15T22:49:01.264Z,9.50
2023-06-15T22:51:29.827Z,10.20
2023-06-15T22:56:26.512Z,10.60
2023-06-15T22:58:55.084Z,10.40
2023-06-15T23:01:22.437Z,10.80
2023-06-15T23:03:49.463Z,10.50
2023-06-15T23:06:19.588Z,10.80
2023-06-15T23:08:48.308Z,12.30
2023-06-15T23:11:17.337Z,11.90
2023-06-15T23:13:51.296Z,13.60
2023-06-15T23:16:18.658Z,17.10
2023-06-15T23:18:46.189Z,36.20
2023-06-15T23:21:14.879Z,37.00
2023-06-15T23:23:42.130Z,19.00
2023-06-15T23:26:09.401Z,18.40
2023-06-15T23:28:40.012Z,30.20
2023-06-15T23:31:07.091Z,22.80
2023-06-15T23:33:35.534Z,16.50
2023-06-15T23:36:02.692Z,13.60
2023-06-15T23:38:29.559Z,11.90
2023-06-15T23:40:56.458Z,11.80
2023-06-15T23:43:23.507Z,12.30
2023-06-15T23:45:51.125Z,12.90
2023-06-15T23:50:45.402Z,15.90
2023-06-15T23:53:12.235Z,16.40
2023-06-15T23:55:43.518Z,19.30
2023-06-15T23:58:10.918Z,21.70
